Tiempo atmosférico en la estación meteorológica de Badajoz Aeropuerto, Badajoz (185 m.)



Fecha
DESCASC
Temp. máxima en grados centígrados (hora)
DESCASC
Temp. mínima en grados centígrados (hora)
DESCASC
Temp. media en grados centígrados
DESCASC
Racha de viento máxima en m/sg (hora)
DESCASC
Velocidad máxima media en intervalos de 10 minutos(hora)
DESCASC
Precipitaciones diarias en mm
DESCASC
Precipitaciones de 00:00 a 06:00 en mm
DESCASC
Precipitaciones de 06:00 a 12:00 en mm
DESCASC
Precipitaciones de 12:00 a 18:00 en mm
DESCASC
Precipitaciones de 18:00 a 24:00 en mm
DESCASC
13-06-2019 27.5 (17:40) 9.4 (07:00) 18.4 10.28 (15:30) 6.11 (20:40) 0 0 0 0 0
12-06-2019 29.8 (17:10) 12.2 (07:10) 21 10.28 (20:10) 7.22 (20:20) 0 0 0 0 0
11-06-2019 27.3 (17:40) 12.2 (07:20) 19.7 11.94 (13:50) 8.06 (11:40) 0 0 0 0 0
10-06-2019 29.2 (18:10) 12.1 (07:00) 20.7 10.28 (20:50) 6.11 (21:50) 0 0 0 0 0
09-06-2019 27.7 (17:10) 10.5 (00:00) 19.1 10.56 (19:30) 6.67 (19:30) 0 0 0 0 0
08-06-2019 29.6 (17:50) 11.4 (00:00) 20.5 10.28 (22:20) 6.67 (20:10) 0 0 0 0 0
07-06-2019 24.3 (18:20) 11 (00:00) 17.6 8.61 (00:10) 5.56 (00:10) 0.4 0.4 0 0 0
06-06-2019 25.1 (17:20) 10.3 (00:00) 17.7 11.67 (21:30) 6.39 (23:50) 0.2 0 0 0 0.2
05-06-2019 23.8 (17:10) 11.9 (00:00) 17.8 11.11 (16:00) 6.94 (16:00) 0 0 0 0 0
04-06-2019 27.6 (16:50) 15.9 (00:00) 21.8 14.72 (17:30) 10 (17:40) 0 0 0 0 0
03-06-2019 35.6 (17:10) 17.4 (00:00) 26.5 10.28 (18:10) 5.56 (23:20) 0 0 0 0 0
02-06-2019 37.2 (18:20) 19.4 (00:00) 28.3 11.94 (20:10) 8.06 (20:10) 0 0 0 0 0
01-06-2019 36.5 (17:20) 17.1 (00:00) 26.8 7.78 (17:10) 3.89 (17:20) 0 0 0 0 0
31-05-2019 36.3 (17:20) 14.8 (00:00) 25.5 9.17 (16:10) 5.28 (17:20) 0 0 0 0 0
30-05-2019 35.2 (18:00) 15.3 (00:00) 25.3 9.72 (12:30) 6.67 (12:20) 0 0 0 0 0
29-05-2019 33 (18:10) 15.6 (00:00) 24.3 10.56 (11:00) 6.94 (10:20) 0 0 0 0 0
28-05-2019 34.1 (16:50) 15.1 (00:00) 24.6 10 (16:50) 6.11 (17:00) 0 0 0 0 0
27-05-2019 34.9 (17:10) 16.5 (00:00) 25.7 11.11 (17:40) 7.22 (18:40) 0 0 0 0 0
26-05-2019 33.4 (18:00) 15.6 (00:00) 24.5 10 (17:30) 6.94 (17:30) 0 0 0 0 0
25-05-2019 29.9 (18:50) 15 (00:00) 22.4 8.89 (12:00) 5.83 (09:50) 0 0 0 0 0
24-05-2019 30.4 (17:10) 13.2 (00:00) 21.8 11.94 (14:30) 7.78 (14:20) 0 0 0 0 0
23-05-2019 30.2 (16:30) 13.6 (00:00) 21.9 10 (15:50) 6.39 (21:20) 0 0 0 0 0
22-05-2019 30.8 (18:50) 13.1 (00:00) 21.9 9.44 (23:10) 5.83 (23:10) 0 0 0 0 0
21-05-2019 28 (18:30) 11.7 (07:20) 19.8 6.94 (01:20) 4.44 (01:10) 0 0 0 0 0
20-05-2019 27.3 (17:10) 8.4 (07:20) 17.8 8.89 (16:10) 5.56 (19:20) 0 0 0 0 0
19-05-2019 25 (16:10) 10.4 (00:00) 17.7 11.67 (16:40) 6.67 (16:40) 0 0 0 0 0
18-05-2019 22 (16:40) 9.1 (00:00) 15.6 12.5 (12:40) 8.33 (18:50) 0 0 0 0 0
17-05-2019 22.5 (18:00) 9.5 (00:00) 16 12.78 (18:00) 8.06 (00:30) 0 0 0 0 0

Gráficas

Temp. máximas Temp. mínimas Temp. medias Precipitaciones Rachas de viento máximas Velocidades máximas media en intervalos de 10 minutos

Datos horarios

Fecha y hora oficial Temperatura (ºC) Velocidad del viento (km/h) Dirección del viento Racha (km/h) Dirección de racha Precipitación (mm) Presión (hPa) Tendencia (hPa) Humedad (%)
2019-06-15 23:00:00 22 5 Oeste 11 Sudoeste 0 996.2 0.6 33
2019-06-15 22:00:00 24.7 6 Sudoeste 10 Oeste 0 995.7 -0.1 29
2019-06-15 21:00:00 26.4 5 Oeste 15 Oeste 0 995.8 -0.6 23
2019-06-15 20:00:00 27.1 8 Oeste 18 Oeste 0 995.6 -1.3 22
2019-06-15 19:00:00 27.3 5 Sudoeste 18 Oeste 0 995.8 -1.6 22
2019-06-15 18:00:00 26.7 6 Oeste 21 Noroeste 0 996.4 -1.7 23
2019-06-15 17:00:00 25.7 7 Noroeste 19 Noroeste 0 996.9 -1.9 25
2019-06-15 16:00:00 25.1 6 Sudoeste 22 Sudoeste 0 997.4 -1.7 24
2019-06-15 15:00:00 23.9 8 Noroeste 17 Noroeste 0 998.1 -1.2 27
2019-06-15 14:00:00 23.1 8 Oeste 26 Noroeste 0 998.8 -0.7 30
2019-06-15 13:00:00 21.5 9 Noroeste 21 Noroeste 0 999.1 -0.2 36
2019-06-15 12:00:00 20 8 Oeste 15 Noroeste 0 999.3 0.2 42
2019-06-15 11:00:00 18 5 Noroeste 15 Noroeste 0 999.5 1 52
2019-06-15 10:00:00 16.5 5 Oeste 13 Noroeste 0 999.3 1.1 59
2019-06-15 09:00:00 14.4 7 Noroeste 11 Noroeste 0 999.1 1.1 71
2019-06-15 08:00:00 12.4 5 Sudoeste 12 Oeste 0 998.5 0.4 76
2019-06-15 07:00:00 11.2 5 Sudoeste 11 Sudoeste 0 998.2 0.1 80
2019-06-15 06:00:00 11.9 4 Sudoeste 10 Oeste 0 998 0 76
2019-06-15 05:00:00 12.6 5 Oeste 13 Oeste 0 998.1 0 72
2019-06-15 04:00:00 13.4 6 Oeste 13 Oeste 0 998.1 0.2 68
2019-06-15 03:00:00 13.9 7 Oeste 13 Oeste 0 998 0.4 65
2019-06-15 02:00:00 13.8 9 Oeste 17 Oeste 0 998.1 1.1 64
2019-06-15 01:00:00 15.4 7 Oeste 15 Oeste 0 997.9 1.5 56
2019-06-15 00:00:00 15.5 6 Oeste 14 Oeste 0 997.6 1.7 55
2019-06-14 23:00:00 16.1 9 Oeste 15 Oeste 0 997 1.8 53
2019-06-14 22:00:00 17.8 12 Oeste 30 Noroeste 0 996.4 1.8 46
2019-06-14 21:00:00 19.9 19 Oeste 32 Noroeste 0 995.9 1.3 42
2019-06-14 20:00:00 20.7 18 Oeste 36 Noroeste 0 995.2 0.8 39
2019-06-14 19:00:00 22.1 23 Oeste 37 Oeste 0 994.6 0 33
2019-06-14 18:00:00 23.3 18 Oeste 36 Noroeste 0 994.6 -0.1 30
2019-06-14 17:00:00 23.2 21 Oeste 37 Oeste 0 994.4 -0.3 30
2019-06-14 16:00:00 21.2 19 Oeste 39 Noroeste 0 994.6 0.1 36
2019-06-14 15:00:00 21 18 Oeste 38 Noroeste 0 994.7 0.5 35
2019-06-14 14:00:00 21.1 18 Oeste 37 Noroeste 0 994.7 1 32
2019-06-14 13:00:00 20.6 22 Oeste 36 Oeste 0 994.5 1.2 37
2019-06-14 12:00:00 19.7 20 Oeste 39 Oeste 0 994.2 1.4 41
2019-06-14 11:00:00 17.9 16 Oeste 33 Oeste 0 993.7 1.2 50
2019-06-14 10:00:00 16.5 14 Oeste 31 Oeste 0 993.3 1.1 54
2019-06-14 09:00:00 14.1 8 Oeste 18 Oeste 0 992.8 1.4 69
2019-06-14 08:00:00 11.7 5 Sudoeste 12 Oeste 0 992.5 1.1 78
2019-06-14 07:00:00 10.2 5 Sudoeste 13 Sudoeste 0 992.2 0.6 82
2019-06-14 06:00:00 10.6 3 Sudoeste 9 Sudoeste 0 991.4 -0.3 79
2019-06-14 05:00:00 11.3 3 Sudoeste 12 Oeste 0 991.4 0.3 73
2019-06-14 04:00:00 12.3 6 Oeste 15 Oeste 0 991.6 0.7 70
2019-06-14 03:00:00 13.5 8 Oeste 18 Oeste 0 991.7 1.2 65
2019-06-14 02:00:00 13.9 9 Oeste 22 Noroeste 0 991.1 1.3 61
2019-06-14 01:00:00 15 12 Oeste 28 Noroeste 0 990.9 2.2 56
2019-06-14 00:00:00 16.4 18 Oeste 32 Noroeste 0 990.5 2.7 49
2019-06-13 23:00:00 18.4 18 Oeste 32 Noroeste 0 989.8 2.7 44
2019-06-13 22:00:00 21.1 16 Oeste 28 Oeste 0 988.7 1.7 34
2019-06-13 21:00:00 24.3 18 Oeste 34 Oeste 0 987.8 0.8 25
2019-06-13 20:00:00 25.3 19 Oeste 32 Noroeste 0 987.1 -0.4 22
2019-06-13 19:00:00 26.3 21 Oeste 33 Noroeste 0 987 -0.9 20
2019-06-13 18:00:00 27.2 18 Noroeste 28 Noroeste 0 987 -1.6 23
2019-06-13 17:00:00 26.9 13 Oeste 34 Noroeste 0 987.5 -1.6 23
2019-06-13 16:00:00 26 11 Oeste 37 Oeste 0 987.9 -1.7 24
2019-06-13 15:00:00 24.1 9 Oeste 24 Noroeste 0 988.6 -1.4 31
2019-06-13 14:00:00 22.5 11 Noroeste 21 Noroeste 0 989.1 -1.1 34
2019-06-13 13:00:00 20.5 7 Oeste 18 Noroeste 0 989.6 -0.6 40
2019-06-13 12:00:00 18.6 5 Oeste 12 Oeste 0 990 0.1 45
2019-06-13 11:00:00 16.3 6 Sudoeste 15 Noroeste 0 990.2 0.7 55
2019-06-13 10:00:00 14.6 6 Sudoeste 17 Oeste 0 990.2 1 61
2019-06-13 09:00:00 13 6 Oeste 15 Oeste 0 989.9 0.7 70
2019-06-13 08:00:00 10.7 5 Sudoeste 13 Sur 0 989.5 0.2 78
2019-06-13 07:00:00 9.4 6 Sur 10 Sur 0 989.2 -0.2 82
2019-06-13 06:00:00 10.1 3 Sudoeste 9 Sur 0 989.2 -0.3 77
2019-06-13 05:00:00 10.9 4 Sur 14 Oeste 0 989.3 -0.3 70
2019-06-13 04:00:00 12.3 10 Oeste 23 Sudoeste 0 989.4 -0.3 68
2019-06-13 03:00:00 13.1 10 Oeste 25 Oeste 0 989.5 0.2 61
2019-06-13 02:00:00 14.1 12 Oeste 22 Oeste 0 989.6 1 55
2019-06-13 01:00:00 15.3 14 Oeste 24 Noroeste 0 989.7 2.1 49
2019-06-13 00:00:00 16.9 14 Oeste 34 Noroeste 0 989.3 2 44
2019-06-12 23:00:00 19.2 18 Oeste 35 Noroeste 0 988.6 1.6 40
2019-06-12 22:00:00 22 15 Oeste 32 Noroeste 0 987.6 0.5 22
2019-06-12 21:00:00 25.1 20 Oeste 37 Noroeste 0 987.3 -0.3 17
2019-06-12 20:00:00 27.5 22 Noroeste 32 Noroeste 0 987 -1 12
2019-06-12 19:00:00 29.1 16 Oeste 28 Oeste 0 987.1 -1.5 10
2019-06-12 18:00:00 28.9 14 Noroeste 35 Noroeste 0 987.6 -2 10
2019-06-12 17:00:00 29.6 17 Oeste 30 Noroeste 0 988 -2.3 11
2019-06-12 16:00:00 28.3 19 Oeste 31 Noroeste 0 988.6 -2.3 15
2019-06-12 15:00:00 27.6 12 Oeste 33 Norte 0 989.6 -1.7 14
2019-06-12 14:00:00 26.4 11 Noroeste 25 Noroeste 0 990.3 -1.3 16
2019-06-12 13:00:00 25.3 7 Noroeste 15 Norte 0 990.9 -0.8 21
2019-06-12 12:00:00 23 6 Nordeste 15 Este 0 991.3 -0.5 24
2019-06-12 11:00:00 21.1 6 Nordeste 13 Noroeste 0 991.6 0.2 29
2019-06-12 10:00:00 18.4 6 Noroeste 11 Noroeste 0 991.7 0.7 36
2019-06-12 09:00:00 16.8 4 Noroeste 8 Noroeste 0 991.8 1 40
2019-06-12 08:00:00 14.6 3 Sur 7 Norte 0 991.4 0.4 47
2019-06-12 07:00:00 12.3 0 Calma 6 Oeste 0 991 -0.2 52
2019-06-12 06:00:00 13.1 3 Oeste 8 Oeste 0 990.8 -0.6 51
2019-06-12 05:00:00 14.5 5 Oeste 11 Oeste 0 991 -0.6 44
2019-06-12 04:00:00 14.7 8 Oeste 14 Oeste 0 991.2 -0.4 41
2019-06-12 03:00:00 14.7 11 Oeste 15 Oeste 0 991.4 -0.1 40
2019-06-12 02:00:00 15.9 9 Oeste 13 Oeste 0 991.6 0.4 39
2019-06-12 01:00:00 18 6 Oeste 8 Oeste 0 991.6 1 29
2019-06-12 00:00:00 19 4 Norte 6 Norte 0 991.5 1.1 23
2019-06-11 23:00:00 20 4 Nordeste 17 Nordeste 0 991.2 1.1 21
2019-06-11 22:00:00 21.8 13 Nordeste 27 Norte 0 990.6 0.7 19
2019-06-11 21:00:00 24.6 19 Norte 30 Norte 0 990.4 0.4 16
2019-06-11 20:00:00 25.7 21 Norte 32 Norte 0 990.1 -0.3 18
2019-06-11 19:00:00 26.5 22 Norte 36 Norte 0 989.9 -0.7 19
2019-06-11 18:00:00 26.7 18 Norte 37 Noroeste 0 990 -1 19
2019-06-11 17:00:00 27.2 27 Norte 40 Norte 0 990.4 -0.8 16
2019-06-11 16:00:00 26.5 28 Norte 42 Norte 0 990.6 -0.9 17
2019-06-11 15:00:00 25.8 24 Noroeste 40 Norte 0 991 -0.6 23
2019-06-11 14:00:00 25.1 26 Noroeste 43 Noroeste 0 991.2 -0.6 27
2019-06-11 13:00:00 23.6 24 Noroeste 35 Noroeste 0 991.5 -0.4 32
2019-06-11 12:00:00 22.6 28 Noroeste 42 Norte 0 991.6 -0.5 36
2019-06-11 11:00:00 21.1 21 Noroeste 32 Noroeste 0 991.8 -0.1 41
2019-06-11 10:00:00 18 14 Oeste 22 Oeste 0 991.9 -0.1 52
2019-06-11 09:00:00 15.7 12 Oeste 23 Oeste 0 992.1 -0.1 59
2019-06-11 08:00:00 13.8 11 Oeste 19 Oeste 0 991.9 -0.6 66
2019-06-11 07:00:00 12.4 8 Oeste 20 Oeste 0 992 -0.8 71
2019-06-11 06:00:00 12.7 14 Oeste 22 Oeste 0 992.2 -1 70
2019-06-11 05:00:00 13.4 12 Oeste 23 Oeste 0 992.5 -1.1 63
2019-06-11 04:00:00 14 12 Oeste 27 Oeste 0 992.8 -1.1 59
2019-06-11 03:00:00 14.6 13 Oeste 24 Oeste 0 993.2 -0.9 55
2019-06-11 02:00:00 15.3 13 Oeste 26 Oeste 0 993.6 -0.1 54
2019-06-11 01:00:00 16.2 16 Oeste 30 Oeste 0 993.9 1 49
2019-06-11 00:00:00 17.8 14 Oeste 28 Oeste 0 994.1 1.6 44
2019-06-10 23:00:00 19.7 12 Oeste 34 Oeste 0 993.7 1.3 36
2019-06-10 22:00:00 21.7 21 Oeste 36 Oeste 0 992.9 0.4 33
2019-06-10 21:00:00 25 21 Oeste 37 Oeste 0 992.5 -0.4 26
2019-06-10 20:00:00 27.5 17 Oeste 35 Oeste 0 992.4 -1.1 22
2019-06-10 19:00:00 29 17 Oeste 30 Oeste 0 992.5 -1.5 23
2019-06-10 18:00:00 29 15 Oeste 33 Noroeste 0 992.9 -1.9 20
2019-06-10 17:00:00 28.6 17 Oeste 32 Noroeste 0 993.5 -1.9 20
2019-06-10 16:00:00 28.1 9 Oeste 28 Noroeste 0 994 -2.1 23
2019-06-10 15:00:00 27 19 Noroeste 33 Noroeste 0 994.8 -1.7 21
2019-06-10 14:00:00 26.1 14 Noroeste 33 Noroeste 0 995.4 -1.5 25
2019-06-10 13:00:00 24.9 13 Oeste 27 Noroeste 0 996.1 -1 29
2019-06-10 12:00:00 22.5 10 Oeste 19 Oeste 0 996.5 -0.6 43
2019-06-10 11:00:00 19.6 10 Oeste 21 Oeste 0 996.9 0.2 52
2019-06-10 10:00:00 17.3 10 Oeste 20 Oeste 0 997.1 0.7 61
2019-06-10 09:00:00 15.3 10 Oeste 20 Oeste 0 997.1 0.8 71
2019-06-10 08:00:00 13.7 10 Oeste 16 Oeste 0 996.7 0.1 78
2019-06-10 07:00:00 12.2 6 Oeste 17 Noroeste 0 996.4 -0.8 85
2019-06-10 06:00:00 12.6 13 Oeste 21 Oeste 0 996.3 -1.4 83
2019-06-10 05:00:00 13.2 8 Oeste 18 Oeste 0 996.6 -1.1 80
2019-06-10 04:00:00 13.8 12 Oeste 21 Oeste 0 997.2 -0.5 77
2019-06-10 03:00:00 14.6 10 Oeste 21 Oeste 0 997.7 0.2 72
2019-06-10 02:00:00 15.9 13 Oeste 24 Oeste 0 997.7 0.6 65
2019-06-10 01:00:00 16.7 10 Oeste 21 Noroeste 0 997.7 1.5 58
2019-06-10 00:00:00 17.9 14 Oeste 23 Oeste 0 997.5 1.9 51
2019-06-09 23:00:00 19.7 14 Oeste 32 Noroeste 0 997.1 1.7 44
2019-06-09 22:00:00 21.3 20 Oeste 35 Noroeste 0 996.2 1.1 39
2019-06-09 21:00:00 23.7 20 Oeste 32 Oeste 0 995.6 0.5 32
2019-06-09 20:00:00 25.6 17 Oeste 38 Noroeste 0 995.4 0.3 29
2019-06-09 19:00:00 26.8 19 Oeste 35 Noroeste 0 995.1 -0.4 27
2019-06-09 18:00:00 27.3 21 Oeste 38 Noroeste 0 995.1 -1.2 25
2019-06-09 17:00:00 27.6 14 Oeste 32 Noroeste 0 995.1 -1.7 24
2019-06-09 16:00:00 27 18 Oeste 33 Noroeste 0 995.5 -1.7 23
2019-06-09 15:00:00 25.8 15 Oeste 32 Noroeste 0 996.3 -1.2 24
2019-06-09 14:00:00 24.2 13 Oeste 27 Noroeste 0 996.8 -0.9 32
2019-06-09 13:00:00 21.8 10 Oeste 23 Noroeste 0 997.2 -0.6 36
2019-06-09 12:00:00 20.3 9 Oeste 20 Oeste 0 997.5 -0.2 43
2019-06-09 11:00:00 17.4 10 Oeste 21 Oeste 0 997.7 0.4 51
2019-06-09 10:00:00 15.6 11 Oeste 23 Oeste 0 997.8 1 58
2019-06-09 09:00:00 13.5 9 Oeste 20 Oeste 0 997.7 1.1 66
2019-06-09 08:00:00 11.4 4 Sudoeste 13 Oeste 0 997.3 0.4 72
2019-06-09 07:00:00 10.6 6 Sudoeste 17 Oeste 0 996.8 -0.2 73
2019-06-09 06:00:00 11.1 8 Sudoeste 15 Oeste 0 996.6 -0.4 66
2019-06-09 05:00:00 11.6 8 Sudoeste 13 Sudoeste 0 996.9 -0.2 63
2019-06-09 04:00:00 12.7 6 Sudoeste 13 Oeste 0 997 0 55
2019-06-09 03:00:00 14.1 9 Oeste 21 Oeste 0 997 0.3 52
2019-06-09 02:00:00 15.5 10 Oeste 23 Oeste 0 997.1 1.2 48
2019-06-09 01:00:00 16.2 12 Oeste 28 Oeste 0 997 2.3 49
2019-06-09 00:00:00 17.9 18 Oeste 32 Oeste 0 996.7 2.8 45
2019-06-08 23:00:00 20 18 Oeste 37 Oeste 0 995.9 2.2 42
2019-06-08 22:00:00 23.1 18 Oeste 32 Oeste 0 994.7 1.2 33
2019-06-08 21:00:00 25.6 16 Oeste 32 Noroeste 0 993.9 -0.2 24
2019-06-08 20:00:00 27 22 Noroeste 32 Noroeste 0 993.7 -0.8 20
2019-06-08 19:00:00 28.6 14 Noroeste 30 Noroeste 0 993.5 -1.7 16
2019-06-08 18:00:00 28.8 18 Noroeste 29 Oeste 0 994.1 -1.8 15
2019-06-08 17:00:00 28.9 7 Noroeste 18 Oeste 0 994.5 -1.7 15
2019-06-08 16:00:00 27.7 8 Oeste 22 Noroeste 0 995.2 -1.5 17
2019-06-08 15:00:00 27.1 12 Oeste 25 Noroeste 0 995.9 -1.1 19
2019-06-08 14:00:00 25.8 9 Noroeste 26 Noroeste 0 996.2 -1.1 20
2019-06-08 13:00:00 24.7 5 Noroeste 13 Noroeste 0 996.7 -0.9 25
2019-06-08 12:00:00 22.7 6 Noroeste 13 Norte 0 997 -0.7 31
2019-06-08 11:00:00 19.9 5 Norte 14 Noroeste 0 997.3 -0.5 40
2019-06-08 10:00:00 17 8 Norte 16 Noroeste 0 997.6 0 50
2019-06-08 09:00:00 14.6 10 Noroeste 15 Noroeste 0 997.7 0.2 61
2019-06-08 08:00:00 12.1 8 Oeste 12 Oeste 0 997.8 0.1 70
2019-06-08 07:00:00 11.5 6 Oeste 10 Oeste 0 997.6 -0.2 69
2019-06-08 06:00:00 11.7 6 Sudoeste 10 Oeste 0 997.5 -0.6 69
2019-06-08 05:00:00 12.4 8 Oeste 13 Oeste 0 997.7 -0.5 66
2019-06-08 04:00:00 13.2 9 Oeste 14 Oeste 0 997.8 -0.4 61
2019-06-08 03:00:00 14.1 6 Oeste 14 Oeste 0 998.1 -0.1 57
2019-06-08 02:00:00 15 8 Oeste 17 Noroeste 0 998.2 0.6 53
2019-06-08 01:00:00 15.3 11 Oeste 18 Noroeste 0 998.2 1.2 52
2019-06-08 00:00:00 17.1 11 Oeste 18 Oeste 0 998.2 1.4 45
2019-06-07 23:00:00 18.4 12 Oeste 18 Oeste 0 997.6 0.9 41
2019-06-07 22:00:00 20.4 9 Oeste 15 Noroeste 0 997 0.5 34
2019-06-07 21:00:00 22.7 11 Oeste 19 Oeste 0 996.8 0.3 27
2019-06-07 20:00:00 23.7 9 Noroeste 22 Noroeste 0 996.7 0 24
2019-06-07 19:00:00 23.8 12 Noroeste 25 Noroeste 0 996.5 -0.4 24
2019-06-07 18:00:00 23.9 10 Noroeste 27 Noroeste 0 996.5 -0.5 24
2019-06-07 17:00:00 23.4 12 Noroeste 26 Noroeste 0 996.7 -0.6 24
2019-06-07 16:00:00 23 9 Oeste 28 Oeste 0 996.9 -0.4 26
2019-06-07 15:00:00 21.6 9 Oeste 26 Noroeste 0 997 -0.1 31
2019-06-07 14:00:00 20.9 14 Oeste 29 Oeste 0 997.3 0.4 32
2019-06-07 13:00:00 19.3 8 Noroeste 31 Noroeste 0 997.3 0.6 39
2019-06-07 12:00:00 18.1 12 Noroeste 24 Noroeste 0 997.1 1 44
2019-06-07 11:00:00 17 11 Oeste 22 Noroeste 0 996.9 1.4 53
2019-06-07 10:00:00 14.9 13 Oeste 22 Noroeste 0 996.7 2.2 70
2019-06-07 09:00:00 13.3 12 Noroeste 19 Noroeste 0 996.1 2 82
2019-06-07 08:00:00 11.7 9 Oeste 17 Sudoeste 0 995.5 2 88
2019-06-07 07:00:00 11.3 10 Oeste 18 Oeste 0 994.5 1.3 89
2019-06-07 06:00:00 11.8 6 Oeste 17 Oeste 0 994.1 1.1 87
2019-06-07 05:00:00 12.4 12 Oeste 17 Oeste 0 993.5 1 84
2019-06-07 04:00:00 12.6 9 Oeste 19 Oeste 0 993.2 1.2 85
2019-06-07 03:00:00 13.7 14 Oeste 22 Oeste 0 993 1.8 82
2019-06-07 02:00:00 13.6 9 Oeste 17 Oeste 0.2 992.5 2.8 86
2019-06-07 01:00:00 13.4 9 Oeste 31 Oeste 0.2 992 2.9 86
2019-06-07 00:00:00 14.5 21 Oeste 39 Noroeste 0.2 991.2 2.3 88
2019-06-06 23:00:00 19.1 13 Sudoeste 35 Sudoeste 0 989.7 1.2 57
2019-06-06 22:00:00 20 12 Sudoeste 42 Oeste 0 989.1 0.8 52
2019-06-06 21:00:00 21 13 Sudoeste 41 Oeste 0 988.9 0.1 47
2019-06-06 20:00:00 23.3 18 Sudoeste 39 Oeste 0 988.5 -0.9 38
2019-06-06 19:00:00 24.5 18 Oeste 41 Oeste 0 988.3 -1.9 33
2019-06-06 18:00:00 24.8 15 Sudoeste 35 Oeste 0 988.8 -2 32
2019-06-06 17:00:00 24.6 11 Sudoeste 35 Sur 0 989.4 -2 31
2019-06-06 16:00:00 23.9 12 Sudoeste 32 Sudoeste 0 990.2 -1.8 31
2019-06-06 15:00:00 23.6 13 Oeste 33 Sudoeste 0 990.8 -1.6 30
2019-06-06 14:00:00 21.9 10 Sudoeste 25 Oeste 0 991.4 -1.8 32
2019-06-06 13:00:00 20.8 7 Oeste 26 Oeste 0 992 -1.3 36
2019-06-06 12:00:00 18.4 8 Oeste 19 Oeste 0 992.4 -1.2 44
2019-06-06 11:00:00 16.9 8 Oeste 21 Noroeste 0 993.2 -0.6 51
2019-06-06 10:00:00 15.5 8 Noroeste 16 Noroeste 0 993.3 -0.6 58
2019-06-06 09:00:00 13.9 5 Oeste 10 Oeste 0 993.6 -0.2 65
2019-06-06 08:00:00 11.4 5 Sur 10 Sudoeste 0 993.8 -0.1 69
2019-06-06 07:00:00 10.4 4 Sudoeste 12 Sudoeste 0 993.9 -0.6 74
2019-06-06 06:00:00 11.1 9 Oeste 16 Oeste 0 993.8 -0.9 70
2019-06-06 05:00:00 11.5 8 Oeste 18 Oeste 0 993.9 -0.9 66
2019-06-06 04:00:00 12.1 11 Oeste 19 Oeste 0 994.5 -0.4 61
2019-06-06 03:00:00 12.6 8 Oeste 16 Noroeste 0 994.7 0 59
2019-06-06 02:00:00 12.9 9 Oeste 18 Noroeste 0 994.8 0.6 56
2019-06-06 01:00:00 14 11 Oeste 23 Oeste 0 994.9 1.4 53
2019-06-06 00:00:00 15.3 14 Oeste 22 Oeste 0 994.7 1.5 45
2019-06-05 23:00:00 16.8 17 Oeste 25 Noroeste 0 994.2 1.2 40
2019-06-05 22:00:00 18.4 15 Oeste 24 Oeste 0 993.5 0.5 36
2019-06-05 21:00:00 20.7 16 Oeste 31 Oeste 0 993.2 -0.1 31
2019-06-05 20:00:00 22.3 17 Oeste 35 Noroeste 0 993 -0.5 26
2019-06-05 19:00:00 23.4 12 Oeste 36 Noroeste 0 993 -1.1 25
2019-06-05 18:00:00 23.7 15 Oeste 35 Noroeste 0 993.3 -1 25
2019-06-05 17:00:00 23.7 19 Oeste 37 Noroeste 0 993.5 -1.5 27
2019-06-05 16:00:00 22.4 25 Oeste 40 Noroeste 0 994.1 -1.3 32
2019-06-05 15:00:00 22.7 15 Oeste 37 Noroeste 0 994.3 -1.1 26
2019-06-05 14:00:00 21.6 22 Noroeste 38 Noroeste 0 995 -0.3 33
2019-06-05 13:00:00 20.6 20 Oeste 39 Noroeste 0 995.4 0.2 38
2019-06-05 12:00:00 19.7 22 Oeste 37 Noroeste 0 995.4 0.6 42
2019-06-05 11:00:00 17.9 18 Oeste 33 Noroeste 0 995.3 1.2 50
2019-06-05 10:00:00 16.2 15 Oeste 27 Oeste 0 995.2 1.5 61
2019-06-05 09:00:00 14.4 12 Oeste 24 Oeste 0 994.8 1.6 72
2019-06-05 08:00:00 13 10 Oeste 27 Oeste 0 994.1 0.9 80
2019-06-05 07:00:00 12 10 Oeste 21 Oeste 0 993.7 0.7 84
2019-06-05 06:00:00 12.5 9 Oeste 22 Oeste 0 993.2 0.1 81
2019-06-05 05:00:00 12.5 11 Oeste 23 Oeste 0 993.2 0.1 79
2019-06-05 04:00:00 13.3 14 Oeste 28 Oeste 0 993 0.3 75
2019-06-05 03:00:00 13.6 16 Oeste 31 Oeste 0 993.1 0.9 73
2019-06-05 02:00:00 14.5 13 Oeste 28 Oeste 0 993.1 1.6 64
2019-06-05 01:00:00 14.9 16 Oeste 32 Oeste 0 992.7 2.3 60
2019-06-05 00:00:00 15.9 18 Oeste 35 Noroeste 0 992.2 2.1 53
2019-06-04 23:00:00 17.5 23 Oeste 42 Noroeste 0 991.5 1.2 49
2019-06-04 22:00:00 19.6 20 Oeste 33 Noroeste 0 990.4 -0.1 48
2019-06-04 21:00:00 20.7 19 Oeste 33 Oeste 0 990.1 -0.3 49
2019-06-04 20:00:00 21.3 22 Oeste 51 Noroeste 0 990.3 0.2 53
2019-06-04 19:00:00 22.4 28 Oeste 48 Noroeste 0 990.5 -0.2 49
2019-06-04 18:00:00 23.1 31 Oeste 53 Noroeste 0 990.4 -0.9 53
2019-06-04 17:00:00 27.3 17 Oeste 36 Noroeste 0 990.1 -2 33
2019-06-04 16:00:00 25.9 14 Oeste 33 Oeste 0 990.7 -2 39
2019-06-04 15:00:00 25.5 13 Oeste 32 Noroeste 0 991.3 -1.7 44
2019-06-04 14:00:00 24.5 19 Oeste 33 Sudoeste 0 992.1 -1.1 47
2019-06-04 13:00:00 23.3 16 Oeste 33 Noroeste 0 992.7 -0.5 51
2019-06-04 12:00:00 21.3 14 Oeste 25 Noroeste 0 993 -0.1 55
2019-06-04 11:00:00 20 14 Oeste 25 Noroeste 0 993.2 0.5 60
2019-06-04 10:00:00 19.2 14 Oeste 28 Oeste 0 993.2 0.7 63
2019-06-04 09:00:00 18.4 11 Oeste 20 Oeste 0 993.1 1.1 67
2019-06-04 08:00:00 16.7 10 Oeste 17 Oeste 0 992.7 0.7 79
2019-06-04 07:00:00 16 8 Oeste 23 Oeste 0 992.5 0.3 82
2019-06-04 06:00:00 16.5 10 Oeste 21 Sudoeste 0 992 -0.4 79
2019-06-04 05:00:00 17.1 11 Oeste 22 Oeste 0 992 -0.8 78
2019-06-04 04:00:00 17.7 9 Oeste 15 Oeste 0 992.2 -0.8 79
2019-06-04 03:00:00 19.1 11 Oeste 22 Oeste 0 992.4 -0.6 73
2019-06-04 02:00:00 20.3 10 Oeste 27 Oeste 0 992.8 0.7 67
2019-06-04 01:00:00 21.3 17 Oeste 27 Oeste 0 993 1.7 63
2019-06-04 00:00:00 22.9 18 Oeste 32 Oeste 0 993 1.8 57
2019-06-03 23:00:00 25.3 20 Oeste 32 Oeste 0 992.1 1 50
2019-06-03 22:00:00 27 18 Oeste 28 Noroeste 0 991.3 0 40
2019-06-03 21:00:00 29.8 17 Oeste 29 Oeste 0 991.2 -0.5 30
2019-06-03 20:00:00 32.4 18 Oeste 33 Oeste 0 991.1 -1 22
2019-06-03 19:00:00 34.5 16 Oeste 37 Oeste 0 991.3 -1.4 16
2019-06-03 18:00:00 35 16 Oeste 31 Oeste 0 991.7 -1.8 17
2019-06-03 17:00:00 35.4 15 Oeste 33 Oeste 0 992.1 -1.9 15
2019-06-03 16:00:00 34.8 10 Oeste 29 Oeste 0 992.7 -1.9 14
2019-06-03 15:00:00 34.4 13 Oeste 26 Oeste 0 993.5 -1.4 14
2019-06-03 14:00:00 33.3 9 Sudoeste 27 Oeste 0 994 -1.2 13
2019-06-03 13:00:00 31.8 8 Oeste 24 Sudoeste 0 994.6 -1 14
2019-06-03 12:00:00 29 3 Sudoeste 10 Sudoeste 0 994.9 -0.4 19
2019-06-03 11:00:00 25.6 4 Oeste 9 Sudoeste 0 995.2 0.2 30
2019-06-03 10:00:00 22.5 5 Noroeste 14 Oeste 0 995.6 0.9 39
2019-06-03 09:00:00 20.7 5 Oeste 13 Oeste 0 995.3 0.9 43
2019-06-03 08:00:00 17.8 6 Sudoeste 12 Sudoeste 0 995 0.3 54
2019-06-03 07:00:00 17.7 3 Sudoeste 11 Sudoeste 0 994.7 -0.1 54
2019-06-03 06:00:00 18.4 7 Oeste 12 Sudoeste 0 994.4 -0.7 51
2019-06-03 05:00:00 19.8 4 Sudoeste 12 Oeste 0 994.7 -0.6 45
2019-06-03 04:00:00 21.4 4 Oeste 15 Sudoeste 0 994.8 -0.4 43
2019-06-03 03:00:00 22.9 9 Oeste 15 Oeste 0 995.1 0.6 37
2019-06-03 02:00:00 23.7 5 Sudoeste 15 Oeste 0 995.3 1.4 36
2019-06-03 01:00:00 25.1 6 Oeste 16 Oeste 0 995.2 2.1 31
2019-06-03 00:00:00 26.1 9 Oeste 17 Oeste 0 994.5 1.7 31
2019-06-02 23:00:00 27.3 8 Oeste 27 Noroeste 0 993.9 1.6 28
2019-06-02 22:00:00 29.4 20 Noroeste 31 Oeste 0 993.1 1 19
2019-06-02 21:00:00 31.2 23 Noroeste 43 Noroeste 0 992.8 0.4 18
2019-06-02 20:00:00 34 27 Noroeste 42 Noroeste 0 992.3 -0.6 16
2019-06-02 19:00:00 36.8 6 Oeste 23 Noroeste 0 992.1 -1.3 14
2019-06-02 18:00:00 36.9 6 Sudoeste 18 Noroeste 0 992.4 -1.8 14
2019-06-02 17:00:00 36.2 5 Este 18 Noroeste 0 992.9 -2.2 15
2019-06-02 16:00:00 35.8 8 Oeste 17 Noroeste 0 993.4 -2.1 16
2019-06-02 15:00:00 34.7 10 Noroeste 19 Oeste 0 994.2 -1.6 17
2019-06-02 14:00:00 33.2 9 Noroeste 18 Noroeste 0 995.1 -1 22
2019-06-02 13:00:00 32.3 5 Sur 11 Oeste 0 995.5 -0.6 23
2019-06-02 12:00:00 30.1 5 Sur 9 Oeste 0 995.8 0 25
2019-06-02 11:00:00 27.2 4 Sudoeste 11 Norte 0 996.1 0.7 31
2019-06-02 10:00:00 24.2 4 Nordeste 8 Este 0 996.1 1.2 40
2019-06-02 09:00:00 22 4 Nordeste 6 Nordeste 0 995.8 1.1 42
2019-06-02 08:00:00 20.1 3 Noroeste 8 Sudoeste 0 995.4 1.2 43
2019-06-02 07:00:00 19.9 3 Oeste 11 Oeste 0 994.9 0.8 42
2019-06-02 06:00:00 20.1 4 Sudoeste 9 Oeste 0 994.7 0.5 42
2019-06-02 05:00:00 21 7 Oeste 14 Oeste 0 994.2 -0.2 41
2019-06-02 04:00:00 22.2 6 Oeste 14 Sudoeste 0 994.1 -0.6 36
2019-06-02 03:00:00 23.8 5 Sur 13 Sur 0 994.2 0.3 32
2019-06-02 02:00:00 25.5 6 Sudoeste 19 Oeste 0 994.4 0.8 30
2019-06-02 01:00:00 26.6 12 Oeste 29 Sur 0 994.7 1.4 25
2019-06-02 00:00:00 26.5 4 Sudoeste 8 Oeste 0 993.9 0.7 28
2019-06-01 23:00:00 28 0 Calma 5 Este 0 993.6 0.5 30
2019-06-01 22:00:00 31.5 3 Este 5 Este 0 993.3 -0.1 22
2019-06-01 21:00:00 34.5 4 Nordeste 13 Este 0 993.2 -0.6 15
2019-06-01 20:00:00 35.9 10 Este 17 Este 0 993.1 -1.2 13
2019-06-01 19:00:00 36.2 9 Nordeste 19 Este 0 993.4 -1.7 12
2019-06-01 18:00:00 36.2 9 Este 28 Este 0 993.8 -1.9 13
2019-06-01 17:00:00 36.2 12 Nordeste 27 Este 0 994.3 -2.2 14
2019-06-01 16:00:00 35.6 11 Este 23 Nordeste 0 995.1 -2 16
2019-06-01 15:00:00 34.3 8 Este 18 Nordeste 0 995.7 -1.7 19
2019-06-01 14:00:00 32.8 10 Nordeste 17 Nordeste 0 996.5 -1.1 19
2019-06-01 13:00:00 31.2 8 Este 18 Nordeste 0 997.1 -0.6 22
2019-06-01 12:00:00 28.7 6 Norte 14 Nordeste 0 997.4 0 25
2019-06-01 11:00:00 26.6 6 Nordeste 13 Nordeste 0 997.6 0.4 28
2019-06-01 10:00:00 23.6 5 Norte 9 Norte 0 997.7 0.9 35
2019-06-01 09:00:00 20.5 3 Norte 5 Norte 0 997.4 1 45
2019-06-01 08:00:00 18.1 0 Calma 6 Norte 0 997.2 1.1 52
2019-06-01 07:00:00 17.8 2 Este 8 Sudeste 0 996.8 1.1 45
2019-06-01 06:00:00 18.8 6 Sudeste 8 Sudeste 0 996.4 0.9 43
2019-06-01 05:00:00 20.4 5 Sudeste 16 Este 0 996.1 0.3 38
2019-06-01 04:00:00 23.6 5 Sur 17 Oeste 0 995.7 0.2 30
2019-06-01 03:00:00 23 6 Sudoeste 14 Oeste 0 995.5 0.1 31
2019-06-01 02:00:00 24.8 4 Sur 18 Sudoeste 0 995.8 0.7 26
2019-06-01 01:00:00 24.1 3 Oeste 4 Oeste 0 995.5 0.8 37
2019-06-01 00:00:00 25.9 3 Oeste 9 Oeste 0 995.4 0.9 34
2019-05-31 23:00:00 27.7 4 Oeste 8 Oeste 0 995.1 0.6 29
2019-05-31 22:00:00 30.5 4 Noroeste 8 Este 0 994.7 -0.4 23
2019-05-31 21:00:00 33.9 7 Este 16 Este 0 994.5 -1.1 19
2019-05-31 20:00:00 35.4 10 Sudeste 24 Este 0 994.5 -1.6 14
2019-05-31 19:00:00 35.9 14 Este 27 Sudeste 0 995.1 -1.6 12
2019-05-31 18:00:00 36.1 15 Este 31 Este 0 995.6 -1.7 11
2019-05-31 17:00:00 35.9 18 Este 33 Este 0 996.1 -1.9 13
2019-05-31 16:00:00 35.8 18 Este 29 Este 0 996.7 -1.8 14
2019-05-31 15:00:00 33.8 9 Nordeste 24 Nordeste 0 997.3 -1.6 19
2019-05-31 14:00:00 32.1 9 Este 19 Nordeste 0 998 -1.2 21
2019-05-31 13:00:00 30.4 11 Nordeste 20 Nordeste 0 998.5 -0.9 25
2019-05-31 12:00:00 28.1 8 Nordeste 16 Este 0 998.9 -0.5 29
2019-05-31 11:00:00 25.9 9 Este 15 Este 0 999.2 0 35
2019-05-31 10:00:00 23 8 Este 13 Este 0 999.4 0.7 37
2019-05-31 09:00:00 20.8 6 Este 11 Este 0 999.4 1 44
2019-05-31 08:00:00 16.6 4 Nordeste 8 Este 0 999.2 1.1 61
2019-05-31 07:00:00 16.6 0 Calma 6 Sudeste 0 998.7 1 56
2019-05-31 06:00:00 17.4 5 Sudeste 9 Sudeste 0 998.4 0.7 49
2019-05-31 05:00:00 17.7 5 Sudeste 9 Este 0 998.1 0.4 44
2019-05-31 04:00:00 19 3 Sudeste 10 Este 0 997.7 0.2 42
2019-05-31 03:00:00 20.4 3 Norte 14 Sudoeste 0 997.7 0.1 39
2019-05-31 02:00:00 22.2 6 Sur 11 Sudeste 0 997.7 0.5 33
2019-05-31 01:00:00 23.2 5 Este 8 Este 0 997.5 0.9 32
2019-05-31 00:00:00 24 0 Calma 5 Noroeste 0 997.6 1.4 34
2019-05-30 23:00:00 26.3 2 Noroeste 6 Sur 0 997.2 1.2 27
2019-05-30 22:00:00 29.8 5 Sudeste 13 Este 0 996.6 0.2 20
2019-05-30 21:00:00 32.7 10 Este 24 Este 0 996.2 -0.6 15
2019-05-30 20:00:00 34 19 Este 28 Este 0 996 -1.4 13
2019-05-30 19:00:00 34.7 20 Este 28 Este 0 996.4 -1.5 13
2019-05-30 18:00:00 35.2 15 Este 28 Este 0 996.8 -1.8 12
2019-05-30 17:00:00 34.4 16 Este 28 Este 0 997.4 -1.8 14
2019-05-30 16:00:00 33.7 18 Nordeste 32 Este 0 997.9 -1.7 14
2019-05-30 15:00:00 33 18 Este 33 Nordeste 0 998.6 -1.3 16
2019-05-30 14:00:00 31.8 18 Este 32 Este 0 999.2 -0.8 17
2019-05-30 13:00:00 30.7 19 Nordeste 35 Este 0 999.6 -0.5 19
2019-05-30 12:00:00 29.5 23 Este 34 Este 0 999.9 0.2 19
2019-05-30 11:00:00 27.8 22 Este 32 Este 0 1000 0.5 22
2019-05-30 10:00:00 25 11 Este 18 Este 0 1000.1 1.3 32
2019-05-30 09:00:00 20.8 6 Nordeste 10 Este 0 999.7 1.2 42
2019-05-30 08:00:00 17.2 2 Norte 8 Este 0 999.5 1.4 54
2019-05-30 07:00:00 15.4 3 Noroeste 4 Noroeste 0 998.8 0.7 60
2019-05-30 06:00:00 16.1 0 Calma 6 Noroeste 0 998.5 0.4 56
2019-05-30 05:00:00 17 3 Sudeste 8 Nordeste 0 998.1 -0.1 51
2019-05-30 04:00:00 18.3 4 Este 6 Nordeste 0 998.1 0.1 45
2019-05-30 03:00:00 19.1 3 Sudeste 5 Sudeste 0 998.1 0.3 43
2019-05-30 02:00:00 20.4 0 Calma 6 Este 0 998.2 1 40
2019-05-30 01:00:00 22.2 4 Sudeste 10 Este 0 998 1.6 35
2019-05-30 00:00:00 23.5 6 Este 8 Este 0 997.8 2 32
2019-05-29 23:00:00 25.2 3 Este 8 Este 0 997.2 1.8 30
2019-05-29 22:00:00 27.2 9 Nordeste 17 Nordeste 0 996.4 0.8 28
2019-05-29 21:00:00 30.6 11 Este 24 Este 0 995.8 -0.1 23
2019-05-29 20:00:00 32.6 16 Este 22 Este 0 995.4 -1 18
2019-05-29 19:00:00 32.9 13 Este 24 Este 0 995.6 -1.4 18
2019-05-29 18:00:00 32.9 14 Este 25 Este 0 995.9 -1.6 18
2019-05-29 17:00:00 32.2 22 Este 31 Este 0 996.4 -1.6 18
2019-05-29 16:00:00 31.4 18 Este 32 Este 0 997 -1.4 18
2019-05-29 15:00:00 30.3 16 Este 36 Sudeste 0 997.5 -0.8 21
2019-05-29 14:00:00 29.2 19 Este 36 Este 0 998 -0.3 21
2019-05-29 13:00:00 28.2 21 Este 36 Este 0 998.4 0.4 23
2019-05-29 12:00:00 26.6 20 Este 35 Este 0 998.3 0.7 25
2019-05-29 11:00:00 25.3 24 Este 38 Nordeste 0 998.3 1.4 26
2019-05-29 10:00:00 23.3 22 Este 32 Este 0 998 1.8 29
2019-05-29 09:00:00 20.4 13 Nordeste 17 Nordeste 0 997.6 1.9 36
2019-05-29 08:00:00 17.3 12 Nordeste 17 Nordeste 0 996.9 1.8 42
2019-05-29 07:00:00 16.1 12 Este 14 Nordeste 0 996.2 1.4 45
2019-05-29 06:00:00 17.1 8 Nordeste 14 Nordeste 0 995.7 1.4 42
2019-05-29 05:00:00 18.5 8 Este 13 Nordeste 0 995.1 1.1 38
2019-05-29 04:00:00 19.3 6 Nordeste 10 Nordeste 0 994.8 0.8 35
2019-05-29 03:00:00 20.5 4 Este 9 Noroeste 0 994.3 0.6 32
2019-05-29 02:00:00 22.3 8 Noroeste 12 Noroeste 0 994 0.9 28
2019-05-29 01:00:00 22.8 9 Noroeste 21 Norte 0 994 1.5 27
2019-05-29 00:00:00 24.3 14 Norte 18 Noroeste 0 993.7 1.9 25
2019-05-28 23:00:00 24.5 15 Norte 20 Nordeste 0 993.1 2 25
2019-05-28 22:00:00 26.1 12 Norte 21 Norte 0 992.5 1.5 22
2019-05-28 21:00:00 30.2 15 Norte 30 Norte 0 991.8 0.7 14
2019-05-28 20:00:00 32.3 22 Noroeste 31 Noroeste 0 991.1 -0.1 14
2019-05-28 19:00:00 33.2 18 Norte 29 Norte 0 991 -0.1 16
2019-05-28 18:00:00 33.5 19 Norte 33 Noroeste 0 991.1 -0.4 15
2019-05-28 17:00:00 33.8 22 Norte 36 Norte 0 991.2 -0.7 17
2019-05-28 16:00:00 33.5 20 Norte 31 Norte 0 991.1 -1.1 20
2019-05-28 15:00:00 31.9 9 Norte 20 Noroeste 0 991.5 -0.8 25
2019-05-28 14:00:00 30.7 6 Nordeste 25 Nordeste 0 991.9 -0.2 28
2019-05-28 13:00:00 28.7 6 Nordeste 21 Nordeste 0 992.2 0.3 33
2019-05-28 12:00:00 26.5 8 Nordeste 14 Nordeste 0 992.3 0.6 40
2019-05-28 11:00:00 23.6 5 Noroeste 13 Noroeste 0 992.1 0.6 45
2019-05-28 10:00:00 20.1 7 Oeste 15 Noroeste 0 991.9 1.1 58
2019-05-28 09:00:00 17.7 8 Oeste 17 Sudoeste 0 991.7 1.1 68
2019-05-28 08:00:00 15.5 10 Oeste 19 Oeste 0 991.5 0.9 78
2019-05-28 07:00:00 15.5 9 Oeste 17 Oeste 0 990.8 0 77
2019-05-28 06:00:00 16.1 8 Oeste 18 Oeste 0 990.6 -0.2 76
2019-05-28 05:00:00 16.3 10 Oeste 19 Oeste 0 990.6 -0.5 76
2019-05-28 04:00:00 18 8 Oeste 18 Oeste 0 990.8 -0.3 70
2019-05-28 03:00:00 18.7 9 Oeste 22 Oeste 0 990.8 -0.1 68
2019-05-28 02:00:00 19.3 14 Oeste 24 Oeste 0 991.1 0.7 66
2019-05-28 01:00:00 20.2 13 Oeste 22 Sudoeste 0 991.1 1.5 63
2019-05-28 00:00:00 21.6 13 Oeste 30 Oeste 0 990.9 1.7 59
2019-05-27 23:00:00 23.7 14 Oeste 29 Oeste 0 990.4 1.6 52
2019-05-27 22:00:00 25.7 14 Oeste 35 Oeste 0 989.6 0.8 45
2019-05-27 21:00:00 28.5 18 Oeste 33 Noroeste 0 989.2 0.3 33
2019-05-27 20:00:00 31.3 21 Oeste 37 Oeste 0 988.8 -0.3 28
2019-05-27 19:00:00 32.4 22 Oeste 37 Oeste 0 988.8 -0.8 25
2019-05-27 18:00:00 33.6 21 Oeste 40 Oeste 0 988.9 -1.5 26
2019-05-27 17:00:00 34.8 16 Oeste 33 Noroeste 0 989.1 -2 22
2019-05-27 16:00:00 33.9 15 Oeste 33 Noroeste 0 989.6 -2.4 22
2019-05-27 15:00:00 33.3 13 Oeste 32 Noroeste 0 990.4 -1.8 23
2019-05-27 14:00:00 32.6 21 Noroeste 31 Noroeste 0 991.1 -1.6 19
2019-05-27 13:00:00 30.4 12 Oeste 22 Oeste 0 992 -0.8 30
2019-05-27 12:00:00 27.6 9 Oeste 17 Oeste 0 992.2 -0.4 38
2019-05-27 11:00:00 24.7 10 Oeste 16 Oeste 0 992.7 -0.1 47
2019-05-27 10:00:00 21.9 8 Oeste 17 Oeste 0 992.8 0.5 55
2019-05-27 09:00:00 19.8 8 Oeste 15 Noroeste 0 992.6 0.7 61
2019-05-27 08:00:00 17 9 Oeste 18 Noroeste 0 992.8 0.7 71
2019-05-27 07:00:00 17.4 7 Oeste 14 Oeste 0 992.3 -0.1 66
2019-05-27 06:00:00 18.7 4 Sudoeste 9 Oeste 0 991.9 -0.8 62
2019-05-27 05:00:00 19.1 3 Noroeste 13 Noroeste 0 992.1 -0.9 59
2019-05-27 04:00:00 20.4 9 Oeste 12 Noroeste 0 992.4 -0.7 53
2019-05-27 03:00:00 20.9 4 Oeste 12 Oeste 0 992.7 -0.6 45
2019-05-27 02:00:00 20.9 11 Oeste 17 Oeste 0 993 0.1 40
2019-05-27 01:00:00 23.3 6 Oeste 10 Oeste 0 993.1 0.8 36
2019-05-27 00:00:00 24.4 6 Noroeste 12 Norte 0 993.3 1.2 32
2019-05-26 23:00:00 26 5 Noroeste 9 Norte 0 992.9 0.9 28
2019-05-26 22:00:00 26.8 8 Norte 21 Nordeste 0 992.3 0.2 26
2019-05-26 21:00:00 30.1 13 Nordeste 26 Norte 0 992.1 -0.5 20
2019-05-26 20:00:00 32.2 14 Norte 30 Nordeste 0 992 -1.1 18
2019-05-26 19:00:00 32.8 18 Norte 33 Norte 0 992.1 -1.6 16
2019-05-26 18:00:00 33.1 22 Norte 36 Nordeste 0 992.6 -2.1 16
2019-05-26 17:00:00 32.9 17 Norte 31 Norte 0 993.1 -2.2 19
2019-05-26 16:00:00 31.1 8 Nordeste 26 Norte 0 993.7 -2.2 22
2019-05-26 15:00:00 30.4 9 Norte 25 Nordeste 0 994.7 -1.6 22
2019-05-26 14:00:00 29.3 15 Norte 24 Norte 0 995.3 -1.2 22
2019-05-26 13:00:00 28 15 Norte 27 Norte 0 995.9 -1 23
2019-05-26 12:00:00 26.6 4 Norte 17 Norte 0 996.3 -0.6 26
2019-05-26 11:00:00 25.3 8 Nordeste 15 Nordeste 0 996.5 0 28
2019-05-26 10:00:00 22.4 8 Norte 13 Nordeste 0 996.9 1 33
2019-05-26 09:00:00 19.4 5 Noroeste 10 Noroeste 0 996.9 1 38
2019-05-26 08:00:00 17.1 4 Oeste 10 Oeste 0 996.5 0.7 45
2019-05-26 07:00:00 15.6 2 Norte 6 Norte 0 995.9 0.2 49
2019-05-26 06:00:00 16.6 3 Norte 8 Oeste 0 995.9 0.1 45
2019-05-26 05:00:00 17.8 4 Oeste 7 Oeste 0 995.8 0.2 41
2019-05-26 04:00:00 18.1 4 Oeste 9 Norte 0 995.7 -0.1 40
2019-05-26 03:00:00 19.5 3 Oeste 10 Oeste 0 995.8 0 40
2019-05-26 02:00:00 20.1 4 Oeste 13 Noroeste 0 995.6 0.5 35
2019-05-26 01:00:00 20.7 4 Sudoeste 9 Oeste 0 995.8 1.1 33
2019-05-26 00:00:00 21.4 8 Noroeste 18 Norte 0 995.8 1.6 29
2019-05-25 23:00:00 23.1 13 Nordeste 18 Nordeste 0 995.1 1.2 25
2019-05-25 22:00:00 25.1 13 Norte 24 Norte 0 994.7 0.6 21
2019-05-25 21:00:00 27.5 12 Norte 23 Nordeste 0 994.2 0.1 23
2019-05-25 20:00:00 29.3 15 Nordeste 31 Norte 0 993.9 -0.4 17
2019-05-25 19:00:00 29.7 13 Norte 24 Nordeste 0 994.1 -0.7 17
2019-05-25 18:00:00 29.6 14 Norte 26 Nordeste 0 994.1 -1.4 18
2019-05-25 17:00:00 29.1 12 Nordeste 26 Norte 0 994.3 -1.8 19
2019-05-25 16:00:00 28.7 5 Nordeste 20 Este 0 994.8 -1.5 23
2019-05-25 15:00:00 27.6 12 Este 24 Este 0 995.5 -1 24
2019-05-25 14:00:00 26.6 13 Nordeste 27 Nordeste 0 996.1 -0.3 25
2019-05-25 13:00:00 25.6 12 Este 28 Este 0 996.3 0 28
2019-05-25 12:00:00 24.5 19 Nordeste 32 Este 0 996.5 0.5 30
2019-05-25 11:00:00 23.1 19 Este 29 Nordeste 0 996.4 1 33
2019-05-25 10:00:00 21.4 19 Nordeste 28 Nordeste 0 996.3 1.6 36
2019-05-25 09:00:00 18.6 13 Nordeste 17 Nordeste 0 996 1.7 44
2019-05-25 08:00:00 15.8 6 Norte 10 Nordeste 0 995.4 1.2 50
2019-05-25 07:00:00 15.3 6 Norte 18 Norte 0 994.7 0.8 49
2019-05-25 06:00:00 15.4 5 Norte 12 Nordeste 0 994.3 0.8 48
2019-05-25 05:00:00 15.9 8 Nordeste 12 Norte 0 994.2 1.3 46
2019-05-25 04:00:00 17.6 5 Norte 9 Este 0 993.9 1 40
2019-05-25 03:00:00 18.5 2 Este 10 Norte 0 993.5 1 39
2019-05-25 02:00:00 19.2 8 Norte 15 Norte 0 992.9 0.9 35
2019-05-25 01:00:00 21 10 Noroeste 14 Noroeste 0 992.9 1.8 29
2019-05-25 00:00:00 22.4 10 Noroeste 17 Noroeste 0 992.5 2 25
2019-05-24 23:00:00 23.2 10 Oeste 23 Norte 0 992 1.9 25
2019-05-24 22:00:00 24.9 17 Norte 26 Norte 0 991.1 1.1 24
2019-05-24 21:00:00 26.4 15 Norte 31 Noroeste 0 990.5 0.4 20
2019-05-24 20:00:00 28.2 18 Norte 35 Norte 0 990.1 -0.3 18
2019-05-24 19:00:00 29.4 22 Norte 34 Noroeste 0 990 -0.7 15
2019-05-24 18:00:00 29.7 23 Norte 36 Norte 0 990.1 -1 14
2019-05-24 17:00:00 29.9 21 Norte 37 Norte 0 990.4 -1.1 17
2019-05-24 16:00:00 29.7 27 Norte 41 Norte 0 990.7 -1.5 20
2019-05-24 15:00:00 28.7 24 Norte 43 Norte 0 991.1 -1.8 25
2019-05-24 14:00:00 27.6 27 Noroeste 39 Noroeste 0 991.5 -2 28
2019-05-24 13:00:00 25.6 26 Noroeste 40 Norte 0 992.2 -1.4 31
2019-05-24 12:00:00 23.9 22 Noroeste 37 Noroeste 0 992.9 -0.6 34
2019-05-24 11:00:00 21 15 Noroeste 30 Noroeste 0 993.5 -0.1 39
2019-05-24 10:00:00 18.6 13 Oeste 27 Noroeste 0 993.6 0 49
2019-05-24 09:00:00 15.7 11 Oeste 24 Oeste 0 993.5 0 62
2019-05-24 08:00:00 13.8 13 Oeste 22 Oeste 0 993.6 -0.1 66
2019-05-24 07:00:00 13.3 12 Oeste 21 Oeste 0 993.6 -0.5 69
2019-05-24 06:00:00 13.6 10 Oeste 19 Oeste 0 993.5 -1.2 68
2019-05-24 05:00:00 13.7 12 Oeste 23 Oeste 0 993.7 -1.1 68
2019-05-24 04:00:00 14.3 11 Oeste 24 Oeste 0 994.1 -1 67
2019-05-24 03:00:00 14.9 12 Oeste 25 Oeste 0 994.7 -0.5 65
2019-05-24 02:00:00 16 14 Oeste 24 Oeste 0 994.8 -0.3 59
2019-05-24 01:00:00 17.1 12 Oeste 28 Oeste 0 995.1 0.9 61
2019-05-24 00:00:00 18.3 17 Oeste 28 Oeste 0 995.2 1.3 67
2019-05-23 23:00:00 19.9 21 Oeste 33 Noroeste 0 995.1 1.3 61
2019-05-23 22:00:00 21.7 19 Oeste 34 Noroeste 0 994.2 0.3 55
2019-05-23 21:00:00 23.9 22 Oeste 35 Noroeste 0 993.9 -0.1 47
2019-05-23 20:00:00 26.4 22 Oeste 32 Noroeste 0 993.8 -0.3 30
2019-05-23 19:00:00 26.4 19 Oeste 31 Oeste 0 993.9 -0.6 26
2019-05-23 18:00:00 28.8 18 Oeste 31 Noroeste 0 994 -0.8 23
2019-05-23 17:00:00 29.2 18 Oeste 33 Noroeste 0 994.1 -1.5 23
2019-05-23 16:00:00 30 15 Oeste 36 Noroeste 0 994.5 -1.7 22
2019-05-23 15:00:00 29.2 12 Oeste 28 Oeste 0 994.8 -1.5 24
2019-05-23 14:00:00 28 15 Oeste 32 Noroeste 0 995.6 -0.8 26
2019-05-23 13:00:00 26.3 13 Oeste 25 Oeste 0 996.2 -0.4 36
2019-05-23 12:00:00 23.8 10 Oeste 24 Oeste 0 996.3 0.1 45
2019-05-23 11:00:00 20.4 4 Oeste 12 Noroeste 0 996.4 0.8 55
2019-05-23 10:00:00 17.6 6 Noroeste 13 Noroeste 0 996.6 1.2 64
2019-05-23 09:00:00 15.3 5 Oeste 12 Noroeste 0 996.2 0.7 73
2019-05-23 08:00:00 14.5 3 Sudoeste 8 Sudeste 0 995.6 0.1 74
2019-05-23 07:00:00 13.9 3 Sudoeste 9 Oeste 0 995.4 -0.1 77
2019-05-23 06:00:00 14.7 4 Sudoeste 9 Sudoeste 0 995.5 -0.1 74
2019-05-23 05:00:00 16 3 Sudoeste 11 Oeste 0 995.5 -0.1 71
2019-05-23 04:00:00 17 5 Oeste 13 Oeste 0 995.5 0 66
2019-05-23 03:00:00 18.3 5 Oeste 12 Oeste 0 995.6 0.6 63
2019-05-23 02:00:00 18.8 6 Sudoeste 13 Oeste 0 995.6 1.2 65
2019-05-23 01:00:00 19.5 8 Oeste 22 Noroeste 0 995.5 1.9 64
2019-05-23 00:00:00 21.2 17 Noroeste 34 Noroeste 0 995 1.9 59
2019-05-22 23:00:00 23.2 18 Oeste 30 Noroeste 0 994.4 1.6 50
2019-05-22 22:00:00 24.8 11 Oeste 20 Oeste 0 993.6 0.7 38
2019-05-22 21:00:00 28.3 10 Oeste 26 Noroeste 0 993.1 0 25
2019-05-22 20:00:00 29.9 14 Oeste 28 Noroeste 0 992.8 -0.8 23
2019-05-22 19:00:00 30.7 16 Noroeste 29 Noroeste 0 992.9 -1 23
2019-05-22 18:00:00 30.4 10 Noroeste 23 Noroeste 0 993.1 -1.4 26
2019-05-22 17:00:00 30.1 9 Noroeste 22 Oeste 0 993.6 -1.3 27
2019-05-22 16:00:00 29.9 9 Noroeste 23 Oeste 0 993.9 -1.4 27
2019-05-22 15:00:00 29.7 6 Sudoeste 18 Norte 0 994.5 -1 28
2019-05-22 14:00:00 28.3 7 Oeste 21 Norte 0 994.9 -0.6 31
2019-05-22 13:00:00 26.4 9 Noroeste 14 Noroeste 0 995.3 -0.1 35
2019-05-22 12:00:00 24.6 4 Sudoeste 9 Oeste 0 995.5 0.6 43
2019-05-22 11:00:00 21.5 4 Oeste 9 Oeste 0 995.5 1 56
2019-05-22 10:00:00 18.5 4 Oeste 7 Oeste 0 995.4 1.4 66
2019-05-22 09:00:00 15.9 4 Oeste 7 Oeste 0 994.9 0.8 75
2019-05-22 08:00:00 14.6 3 Oeste 7 Oeste 0 994.5 0.5 80
2019-05-22 07:00:00 13.2 2 Sudoeste 8 Oeste 0 994 -0.2 83
2019-05-22 06:00:00 13.9 5 Sudoeste 8 Sudoeste 0 994.1 -0.2 83
2019-05-22 05:00:00 14.7 3 Sudoeste 13 Sudoeste 0 994 -0.1 80
2019-05-22 04:00:00 16.2 7 Oeste 15 Oeste 0 994.2 0.2 76
2019-05-22 03:00:00 16.9 7 Oeste 18 Oeste 0 994.3 0.6 73
2019-05-22 02:00:00 17.1 9 Oeste 19 Oeste 0 994.1 0.8 73
2019-05-22 01:00:00 18.4 12 Oeste 22 Oeste 0 994 1.5 66
2019-05-22 00:00:00 20.5 8 Oeste 17 Oeste 0 993.7 1.5 49
2019-05-21 23:00:00 21.4 6 Oeste 14 Oeste 0 993.3 1.5 47
2019-05-21 22:00:00 22.5 10 Oeste 15 Oeste 0 992.5 0.6 45
2019-05-21 21:00:00 24.5 11 Oeste 19 Noroeste 0 992.2 0.4 38
2019-05-21 20:00:00 26.2 9 Oeste 19 Oeste 0 991.8 -0.3 34
2019-05-21 19:00:00 26.2 12 Oeste 24 Noroeste 0 991.9 -0.6 34
2019-05-21 18:00:00 27.3 13 Oeste 23 Noroeste 0 991.8 -1.1 30
2019-05-21 17:00:00 27.5 6 Noroeste 22 Oeste 0 992.1 -1.4 27
2019-05-21 16:00:00 26.8 10 Oeste 23 Noroeste 0 992.5 -1.2 29
2019-05-21 15:00:00 25.4 11 Noroeste 24 Noroeste 0 992.9 -1 31
2019-05-21 14:00:00 24.3 9 Noroeste 22 Oeste 0 993.5 -0.6 35
2019-05-21 13:00:00 22.3 9 Noroeste 20 Noroeste 0 993.7 -0.4 38
2019-05-21 12:00:00 20.7 11 Oeste 21 Noroeste 0 993.9 -0.1 46
2019-05-21 11:00:00 18.6 10 Oeste 19 Noroeste 0 994.1 0.5 56
2019-05-21 10:00:00 16.1 11 Oeste 22 Oeste 0 994.1 0.8 69
2019-05-21 09:00:00 14 12 Oeste 18 Noroeste 0 994 0.8 78
2019-05-21 08:00:00 12.8 9 Oeste 18 Oeste 0 993.6 0.5 84
2019-05-21 07:00:00 11.9 11 Oeste 17 Oeste 0 993.3 0.6 87
2019-05-21 06:00:00 12.5 8 Oeste 21 Oeste 0 993.2 0.3 84
2019-05-21 05:00:00 13.1 10 Oeste 22 Sudoeste 0 993.1 0 80
2019-05-21 04:00:00 13.7 10 Oeste 18 Oeste 0 992.7 -0.3 76
2019-05-21 03:00:00 14.2 9 Oeste 23 Oeste 0 992.9 0.1 70
2019-05-21 02:00:00 15.2 13 Oeste 25 Oeste 0 993.1 0.9 63
2019-05-21 01:00:00 16.3 15 Oeste 24 Oeste 0 993 1.8 56
2019-05-21 00:00:00 17.8 16 Oeste 26 Oeste 0 992.8 2.1 49
2019-05-20 23:00:00 19 15 Oeste 24 Oeste 0 992.2 1.9 45
2019-05-20 22:00:00 20.5 14 Oeste 28 Oeste 0 991.2 1 38
2019-05-20 21:00:00 23 15 Oeste 30 Noroeste 0 990.7 0.5 31
2019-05-20 20:00:00 24.8 18 Oeste 31 Noroeste 0 990.3 -0.3 28
2019-05-20 19:00:00 25.9 17 Oeste 30 Noroeste 0 990.2 -0.6 25
2019-05-20 18:00:00 26.4 18 Oeste 31 Noroeste 0 990.2 -1.4 22
2019-05-20 17:00:00 27 14 Oeste 32 Noroeste 0 990.6 -1.5 20
2019-05-20 16:00:00 25.5 15 Oeste 30 Noroeste 0 990.8 -1.6 21
2019-05-20 15:00:00 24.2 9 Oeste 24 Noroeste 0 991.6 -0.9 22
2019-05-20 14:00:00 22.7 10 Oeste 19 Noroeste 0 992.1 -0.7 28
2019-05-20 13:00:00 20.7 9 Oeste 18 Noroeste 0 992.4 0 35
2019-05-20 12:00:00 18.9 5 Sudoeste 15 Noroeste 0 992.5 0.3 39
2019-05-20 11:00:00 16.1 7 Oeste 16 Oeste 0 992.8 1.1 47
2019-05-20 10:00:00 14 9 Oeste 17 Noroeste 0 992.4 1.3 57
2019-05-20 09:00:00 11.7 9 Oeste 15 Oeste 0 992.2 1.1 64
2019-05-20 08:00:00 9.3 4 Sudoeste 8 Sudoeste 0 991.7 0.5 71
2019-05-20 07:00:00 8.6 3 Sudoeste 10 Sudoeste 0 991.1 -0.2 73
2019-05-20 06:00:00 9.4 5 Sudoeste 11 Oeste 0 991.1 -0.4 70
2019-05-20 05:00:00 10.9 5 Oeste 16 Oeste 0 991.2 -0.6 63
2019-05-20 04:00:00 12.2 7 Oeste 17 Oeste 0 991.3 -0.8 59
2019-05-20 03:00:00 13.3 10 Oeste 19 Oeste 0 991.5 -0.3 55
2019-05-20 02:00:00 14.5 9 Oeste 18 Sudoeste 0 991.8 0.5 52
2019-05-20 01:00:00 15.7 10 Oeste 19 Oeste 0 992.1 1.3 49
2019-05-20 00:00:00 16.9 10 Oeste 21 Oeste 0 991.8 1.4 45
2019-05-19 23:00:00 17.9 9 Oeste 20 Oeste 0 991.3 1.1 44
2019-05-19 22:00:00 18.7 11 Oeste 23 Oeste 0 990.8 0.7 40
2019-05-19 21:00:00 20.4 15 Oeste 36 Noroeste 0 990.4 0.1 36
2019-05-19 20:00:00 21.8 20 Oeste 36 Oeste 0 990.2 -0.3 32
2019-05-19 19:00:00 22.7 22 Oeste 41 Noroeste 0 990.1 -0.9 32
2019-05-19 18:00:00 24.3 17 Oeste 41 Noroeste 0 990.3 -1.2 29
2019-05-19 17:00:00 24.5 23 Oeste 42 Noroeste 0 990.5 -1.5 26
2019-05-19 16:00:00 24.6 16 Oeste 33 Oeste 0 991 -1.4 25
2019-05-19 15:00:00 23.2 12 Oeste 26 Noroeste 0 991.5 -0.9 26
2019-05-19 14:00:00 21.5 12 Noroeste 24 Noroeste 0 992 -0.9 30
2019-05-19 13:00:00 20.1 10 Oeste 24 Noroeste 0 992.4 -0.7 35
2019-05-19 12:00:00 18.2 14 Noroeste 23 Noroeste 0 992.4 -0.4 41
2019-05-19 11:00:00 16.5 7 Oeste 16 Oeste 0 992.9 0.3 47
2019-05-19 10:00:00 14.6 10 Oeste 21 Oeste 0 993.1 0.8 56
2019-05-19 09:00:00 12.8 10 Oeste 20 Oeste 0 992.8 0.6 65
2019-05-19 08:00:00 11.3 8 Oeste 15 Oeste 0 992.6 0.5 71
2019-05-19 07:00:00 10.6 10 Oeste 17 Oeste 0 992.3 0 74
2019-05-19 06:00:00 11.5 9 Oeste 23 Sudoeste 0 992.2 -0.5 71
2019-05-19 05:00:00 12.1 9 Oeste 21 Oeste 0 992.1 -0.9 69
2019-05-19 04:00:00 12.2 11 Oeste 23 Oeste 0 992.3 -0.9 69
2019-05-19 03:00:00 12.6 13 Oeste 26 Noroeste 0 992.7 -0.6 65
2019-05-19 02:00:00 13.2 14 Oeste 32 Noroeste 0 993 0 59
2019-05-19 01:00:00 13.8 20 Oeste 33 Noroeste 0 993.2 0.7 57
2019-05-19 00:00:00 14.4 18 Oeste 30 Noroeste 0 993.3 1.2 52
2019-05-18 23:00:00 15.2 18 Oeste 33 Noroeste 0 993 1.2 50
2019-05-18 22:00:00 16.4 19 Oeste 36 Oeste 0 992.5 1 41
2019-05-18 21:00:00 17.7 21 Oeste 39 Noroeste 0 992.1 0.8 37
2019-05-18 20:00:00 19.6 24 Oeste 40 Noroeste 0 991.8 0.4 31
2019-05-18 19:00:00 20.4 26 Oeste 44 Noroeste 0 991.5 0 30
2019-05-18 18:00:00 21.4 25 Oeste 44 Noroeste 0 991.3 -0.7 28
2019-05-18 17:00:00 21.3 23 Noroeste 41 Noroeste 0 991.4 -0.8 28
2019-05-18 16:00:00 21.1 19 Oeste 42 Noroeste 0 991.5 -1.2 29
2019-05-18 15:00:00 20.1 19 Noroeste 41 Noroeste 0 992 -1 30
2019-05-18 14:00:00 20 27 Noroeste 42 Noroeste 0 992.2 -0.8 30
2019-05-18 13:00:00 18.8 23 Noroeste 45 Noroeste 0 992.7 -0.3 34
2019-05-18 12:00:00 17.6 24 Noroeste 38 Noroeste 0 993 0.1 35
2019-05-18 11:00:00 16.2 23 Norte 39 Noroeste 0 993 0.3 39
2019-05-18 10:00:00 14.2 22 Noroeste 33 Noroeste 0 993 0.7 46
2019-05-18 09:00:00 11.7 13 Oeste 20 Noroeste 0 992.9 1 61
2019-05-18 08:00:00 10 9 Oeste 19 Oeste 0 992.7 0.8 69
2019-05-18 07:00:00 9.5 11 Oeste 19 Oeste 0 992.3 0.1 69
2019-05-18 06:00:00 10.2 7 Oeste 16 Oeste 0 991.9 -0.8 67
2019-05-18 05:00:00 10.8 7 Oeste 14 Oeste 0 991.9 -1.1 63
2019-05-18 04:00:00 11.3 10 Oeste 21 Noroeste 0 992.2 -0.7 61
2019-05-18 03:00:00 12.2 14 Noroeste 29 Noroeste 0 992.7 -0.6 58
2019-05-18 02:00:00 12.7 16 Oeste 36 Noroeste 0 993 0.2 57
2019-05-18 01:00:00 13 21 Noroeste 40 Noroeste 0 992.9 0.9 54
2019-05-18 00:00:00 13.5 18 Oeste 31 Noroeste 0 993.3 1.5 54
2019-05-17 23:00:00 14.9 26 Oeste 37 Noroeste 0 992.8 1.6 47
2019-05-17 22:00:00 16 22 Oeste 37 Oeste 0 992 1 44
2019-05-17 21:00:00 18 24 Oeste 44 Oeste 0 991.8 0.6 39
2019-05-17 20:00:00 20 27 Noroeste 46 Noroeste 0 991.2 -0.3 37
2019-05-17 19:00:00 21.8 23 Oeste 42 Oeste 0 991 -1.6 32
2019-05-17 18:00:00 21.4 26 Noroeste 46 Noroeste 0 991.2 -2.1 32
2019-05-17 17:00:00 21.8 20 Noroeste 41 Noroeste 0 991.5 -2.4 32
2019-05-17 16:00:00 20.7 20 Noroeste 37 Noroeste 0 992.6 -1.5 30
2019-05-17 15:00:00 19.2 24 Noroeste 39 Noroeste 0 993.3 -0.7 31
2019-05-17 14:00:00 18.5 26 Noroeste 41 Noroeste 0 993.9 0.1 33
2019-05-17 13:00:00 18.2 27 Noroeste 39 Noroeste 0 994.1 -0.2 36
2019-05-17 12:00:00 16.8 22 Noroeste 38 Noroeste 0 994 0 38
2019-05-17 11:00:00 16.1 20 Noroeste 30 Noroeste 0 993.8 0.2 42
2019-05-17 10:00:00 13.7 12 Oeste 21 Oeste 0 994.3 1.4 59
2019-05-17 09:00:00 11.9 12 Oeste 22 Oeste 0 994 1.6 72
2019-05-17 08:00:00 10.7 12 Oeste 21 Oeste 0 993.6 1.5 79
2019-05-17 07:00:00 9.7 13 Oeste 22 Oeste 0 992.9 0.8 82
2019-05-17 06:00:00 9.9 14 Oeste 26 Oeste 0 992.4 0.1 79
2019-05-17 05:00:00 10.2 12 Oeste 25 Oeste 0 992.1 0.2 79
2019-05-17 04:00:00 10.7 17 Oeste 34 Oeste 0 992.1 0 75
2019-05-17 03:00:00 11.4 18 Oeste 31 Oeste 0 992.3 0.6 70
2019-05-17 02:00:00 12.2 20 Oeste 35 Oeste 0 991.9 0.6 63
2019-05-17 01:00:00 13.5 21 Oeste 45 Noroeste 0 992.1 1.6 62
2019-05-17 00:00:00 14.5 23 Oeste 46 Noroeste 0 991.7 1.9 60